sensor_id;sensor_type;location;lat;lon;timestamp;temperature;humidity
5218;DHT22;26539;51.064;6.346;2023-06-26T00:02:25;24.70;95.60
5218;DHT22;26539;51.064;6.346;2023-06-26T00:04:50;24.70;96.20
5218;DHT22;26539;51.064;6.346;2023-06-26T00:07:19;24.60;96.70
5218;DHT22;26539;51.064;6.346;2023-06-26T00:09:45;24.60;97.60
5218;DHT22;26539;51.064;6.346;2023-06-26T00:12:11;24.50;97.70
5218;DHT22;26539;51.064;6.346;2023-06-26T00:14:36;24.50;98.60
5218;DHT22;26539;51.064;6.346;2023-06-26T00:17:02;24.40;98.70
5218;DHT22;26539;51.064;6.346;2023-06-26T00:19:28;24.30;99.00
5218;DHT22;26539;51.064;6.346;2023-06-26T00:21:53;24.30;99.20
5218;DHT22;26539;51.064;6.346;2023-06-26T00:24:19;24.30;99.90
5218;DHT22;26539;51.064;6.346;2023-06-26T00:26:46;24.30;99.40
5218;DHT22;26539;51.064;6.346;2023-06-26T00:29:12;24.20;99.80
5218;DHT22;26539;51.064;6.346;2023-06-26T00:31:38;24.20;99.30
5218;DHT22;26539;51.064;6.346;2023-06-26T00:34:05;24.20;99.10
5218;DHT22;26539;51.064;6.346;2023-06-26T00:36:31;24.10;98.90
5218;DHT22;26539;51.064;6.346;2023-06-26T00:38:56;24.10;99.10
5218;DHT22;26539;51.064;6.346;2023-06-26T00:41:22;24.00;98.80
5218;DHT22;26539;51.064;6.346;2023-06-26T00:43:48;24.00;99.00
5218;DHT22;26539;51.064;6.346;2023-06-26T00:46:14;23.90;98.70
5218;DHT22;26539;51.064;6.346;2023-06-26T00:48:41;23.90;99.00
5218;DHT22;26539;51.064;6.346;2023-06-26T00:51:08;23.90;98.60
5218;DHT22;26539;51.064;6.346;2023-06-26T00:53:34;23.80;98.30
5218;DHT22;26539;51.064;6.346;2023-06-26T00:56:00;23.90;98.20
5218;DHT22;26539;51.064;6.346;2023-06-26T00:58:27;23.80;97.90
5218;DHT22;26539;51.064;6.346;2023-06-26T01:00:52;23.90;97.50
5218;DHT22;26539;51.064;6.346;2023-06-26T01:03:19;23.90;97.20
5218;DHT22;26539;51.064;6.346;2023-06-26T01:05:46;23.80;97.50
5218;DHT22;26539;51.064;6.346;2023-06-26T01:08:15;23.80;97.50
5218;DHT22;26539;51.064;6.346;2023-06-26T01:10:41;23.80;97.60
5218;DHT22;26539;51.064;6.346;2023-06-26T01:13:07;23.70;97.50
5218;DHT22;26539;51.064;6.346;2023-06-26T01:15:33;23.70;97.00
5218;DHT22;26539;51.064;6.346;2023-06-26T01:17:59;23.70;96.70
5218;DHT22;26539;51.064;6.346;2023-06-26T01:20:32;23.70;96.90
5218;DHT22;26539;51.064;6.346;2023-06-26T01:23:07;23.60;96.70
5218;DHT22;26539;51.064;6.346;2023-06-26T01:25:56;23.60;96.00
5218;DHT22;26539;51.064;6.346;2023-06-26T01:28:27;23.60;96.10
5218;DHT22;26539;51.064;6.346;2023-06-26T01:30:54;23.60;95.10
5218;DHT22;26539;51.064;6.346;2023-06-26T01:33:20;23.60;95.40
5218;DHT22;26539;51.064;6.346;2023-06-26T01:35:46;23.60;94.50
5218;DHT22;26539;51.064;6.346;2023-06-26T01:38:19;23.60;93.80
5218;DHT22;26539;51.064;6.346;2023-06-26T01:40:45;23.60;93.10
5218;DHT22;26539;51.064;6.346;2023-06-26T01:43:23;23.60;93.10
5218;DHT22;26539;51.064;6.346;2023-06-26T01:45:51;23.60;92.50
5218;DHT22;26539;51.064;6.346;2023-06-26T01:48:23;23.60;92.20
5218;DHT22;26539;51.064;6.346;2023-06-26T01:50:51;23.50;91.70
5218;DHT22;26539;51.064;6.346;2023-06-26T01:53:19;23.50;92.00
5218;DHT22;26539;51.064;6.346;2023-06-26T01:55:53;23.50;92.40
5218;DHT22;26539;51.064;6.346;2023-06-26T01:58:23;23.50;92.50
5218;DHT22;26539;51.064;6.346;2023-06-26T02:00:50;23.50;92.50
5218;DHT22;26539;51.064;6.346;2023-06-26T02:03:16;23.50;92.60
5218;DHT22;26539;51.064;6.346;2023-06-26T02:05:42;23.40;92.90
5218;DHT22;26539;51.064;6.346;2023-06-26T02:08:08;23.40;93.40
5218;DHT22;26539;51.064;6.346;2023-06-26T02:10:34;23.40;94.20
5218;DHT22;26539;51.064;6.346;2023-06-26T02:13:00;23.30;94.40
5218;DHT22;26539;51.064;6.346;2023-06-26T02:15:26;23.30;95.40
5218;DHT22;26539;51.064;6.346;2023-06-26T02:17:51;23.30;97.00
5218;DHT22;26539;51.064;6.346;2023-06-26T02:20:17;23.20;98.60
5218;DHT22;26539;51.064;6.346;2023-06-26T02:22:42;23.20;99.90
5218;DHT22;26539;51.064;6.346;2023-06-26T02:25:09;23.10;99.90
5218;DHT22;26539;51.064;6.346;2023-06-26T02:27:35;23.10;99.90
5218;DHT22;26539;51.064;6.346;2023-06-26T02:30:01;23.10;99.90
5218;DHT22;26539;51.064;6.346;2023-06-26T02:32:27;23.00;99.90
5218;DHT22;26539;51.064;6.346;2023-06-26T02:34:52;23.00;99.90
5218;DHT22;26539;51.064;6.346;2023-06-26T02:37:19;22.90;99.90
5218;DHT22;26539;51.064;6.346;2023-06-26T02:39:44;22.80;99.90
5218;DHT22;26539;51.064;6.346;2023-06-26T02:42:10;22.80;99.90
5218;DHT22;26539;51.064;6.346;2023-06-26T02:44:35;22.70;99.90
5218;DHT22;26539;51.064;6.346;2023-06-26T02:47:01;22.70;99.90
5218;DHT22;26539;51.064;6.346;2023-06-26T02:49:27;22.60;99.90
5218;DHT22;26539;51.064;6.346;2023-06-26T02:51:52;22.60;99.90
5218;DHT22;26539;51.064;6.346;2023-06-26T02:54:18;22.50;99.90
5218;DHT22;26539;51.064;6.346;2023-06-26T02:56:43;22.50;99.90
5218;DHT22;26539;51.064;6.346;2023-06-26T02:59:09;22.50;99.90
5218;DHT22;26539;51.064;6.346;2023-06-26T03:01:34;22.50;99.90
5218;DHT22;26539;51.064;6.346;2023-06-26T03:04:00;22.50;99.90
5218;DHT22;26539;51.064;6.346;2023-06-26T03:06:29;22.50;99.90
5218;DHT22;26539;51.064;6.346;2023-06-26T03:08:54;22.40;99.90
5218;DHT22;26539;51.064;6.346;2023-06-26T03:11:20;22.40;99.90
5218;DHT22;26539;51.064;6.346;2023-06-26T03:13:45;22.40;99.90
5218;DHT22;26539;51.064;6.346;2023-06-26T03:16:11;22.40;99.90
5218;DHT22;26539;51.064;6.346;2023-06-26T03:18:36;22.40;99.90
5218;DHT22;26539;51.064;6.346;2023-06-26T03:21:02;22.30;99.90
5218;DHT22;26539;51.064;6.346;2023-06-26T03:23:28;22.30;99.90
5218;DHT22;26539;51.064;6.346;2023-06-26T03:25:53;22.30;99.90
5218;DHT22;26539;51.064;6.346;2023-06-26T03:28:19;22.30;99.90
5218;DHT22;26539;51.064;6.346;2023-06-26T03:30:44;22.30;99.90
5218;DHT22;26539;51.064;6.346;2023-06-26T03:33:10;22.20;99.90
5218;DHT22;26539;51.064;6.346;2023-06-26T03:35:36;22.20;99.90
5218;DHT22;26539;51.064;6.346;2023-06-26T03:38:03;22.20;99.90
5218;DHT22;26539;51.064;6.346;2023-06-26T03:40:28;22.20;99.90
5218;DHT22;26539;51.064;6.346;2023-06-26T03:42:54;22.20;99.90
5218;DHT22;26539;51.064;6.346;2023-06-26T03:45:19;22.20;99.90
5218;DHT22;26539;51.064;6.346;2023-06-26T03:47:45;22.20;99.90
5218;DHT22;26539;51.064;6.346;2023-06-26T03:50:14;22.20;99.90
5218;DHT22;26539;51.064;6.346;2023-06-26T03:52:40;22.20;99.90
5218;DHT22;26539;51.064;6.346;2023-06-26T03:55:05;22.20;99.90
5218;DHT22;26539;51.064;6.346;2023-06-26T03:57:31;22.20;99.90
5218;DHT22;26539;51.064;6.346;2023-06-26T03:59:57;22.30;99.90
5218;DHT22;26539;51.064;6.346;2023-06-26T04:02:22;22.30;99.90
5218;DHT22;26539;51.064;6.346;2023-06-26T04:04:48;22.30;99.90
5218;DHT22;26539;51.064;6.346;2023-06-26T04:07:13;22.30;1.00
5218;DHT22;26539;51.064;6.346;2023-06-26T04:09:39;22.30;1.00
5218;DHT22;26539;51.064;6.346;2023-06-26T04:12:06;22.30;1.00
5218;DHT22;26539;51.064;6.346;2023-06-26T04:14:31;22.30;99.90
5218;DHT22;26539;51.064;6.346;2023-06-26T04:16:57;22.30;99.90
5218;DHT22;26539;51.064;6.346;2023-06-26T04:19:23;22.30;99.90
5218;DHT22;26539;51.064;6.346;2023-06-26T04:21:49;22.30;99.90
5218;DHT22;26539;51.064;6.346;2023-06-26T04:24:14;22.20;99.90
5218;DHT22;26539;51.064;6.346;2023-06-26T04:26:40;22.20;99.90
5218;DHT22;26539;51.064;6.346;2023-06-26T04:29:06;22.20;99.90
5218;DHT22;26539;51.064;6.346;2023-06-26T04:31:32;22.20;99.90
5218;DHT22;26539;51.064;6.346;2023-06-26T04:33:57;22.20;99.90
5218;DHT22;26539;51.064;6.346;2023-06-26T04:36:25;22.20;99.90
5218;DHT22;26539;51.064;6.346;2023-06-26T04:38:56;22.20;99.90
5218;DHT22;26539;51.064;6.346;2023-06-26T04:41:22;22.20;99.90
5218;DHT22;26539;51.064;6.346;2023-06-26T04:43:48;22.30;99.90
5218;DHT22;26539;51.064;6.346;2023-06-26T04:46:13;22.30;99.90
5218;DHT22;26539;51.064;6.346;2023-06-26T04:48:39;22.40;99.90
5218;DHT22;26539;51.064;6.346;2023-06-26T04:51:04;22.50;99.90
5218;DHT22;26539;51.064;6.346;2023-06-26T04:53:30;22.50;99.90
5218;DHT22;26539;51.064;6.346;2023-06-26T04:55:55;22.50;99.90
5218;DHT22;26539;51.064;6.346;2023-06-26T04:58:21;22.50;99.90
5218;DHT22;26539;51.064;6.346;2023-06-26T05:00:47;22.50;99.90
5218;DHT22;26539;51.064;6.346;2023-06-26T05:03:13;22.40;99.90
5218;DHT22;26539;51.064;6.346;2023-06-26T05:05:39;22.30;99.90
5218;DHT22;26539;51.064;6.346;2023-06-26T05:08:16;22.30;99.90
5218;DHT22;26539;51.064;6.346;2023-06-26T05:10:42;22.30;99.90
5218;DHT22;26539;51.064;6.346;2023-06-26T05:13:07;22.30;99.90
5218;DHT22;26539;51.064;6.346;2023-06-26T05:15:33;22.40;99.90
5218;DHT22;26539;51.064;6.346;2023-06-26T05:17:59;22.40;99.90
5218;DHT22;26539;51.064;6.346;2023-06-26T05:20:24;22.60;99.90
5218;DHT22;26539;51.064;6.346;2023-06-26T05:22:50;22.70;99.90
5218;DHT22;26539;51.064;6.346;2023-06-26T05:25:16;22.90;99.90
5218;DHT22;26539;51.064;6.346;2023-06-26T05:27:43;23.00;99.90
5218;DHT22;26539;51.064;6.346;2023-06-26T05:30:09;23.10;99.90
5218;DHT22;26539;51.064;6.346;2023-06-26T05:32:35;23.20;99.90
5218;DHT22;26539;51.064;6.346;2023-06-26T05:35:02;23.10;99.90
5218;DHT22;26539;51.064;6.346;2023-06-26T05:37:30;23.10;99.90
5218;DHT22;26539;51.064;6.346;2023-06-26T05:39:56;23.10;99.90
5218;DHT22;26539;51.064;6.346;2023-06-26T05:42:22;23.10;99.90
5218;DHT22;26539;51.064;6.346;2023-06-26T05:44:48;23.20;99.90
5218;DHT22;26539;51.064;6.346;2023-06-26T05:47:13;23.20;99.90
5218;DHT22;26539;51.064;6.346;2023-06-26T05:49:39;23.30;99.90
5218;DHT22;26539;51.064;6.346;2023-06-26T05:52:05;23.50;99.90
5218;DHT22;26539;51.064;6.346;2023-06-26T05:54:30;23.70;99.90
5218;DHT22;26539;51.064;6.346;2023-06-26T05:56:57;23.90;99.90
5218;DHT22;26539;51.064;6.346;2023-06-26T05:59:26;24.00;99.90
5218;DHT22;26539;51.064;6.346;2023-06-26T06:01:52;24.10;99.90
5218;DHT22;26539;51.064;6.346;2023-06-26T06:04:18;24.20;99.90
5218;DHT22;26539;51.064;6.346;2023-06-26T06:06:44;24.40;99.90
5218;DHT22;26539;51.064;6.346;2023-06-26T06:09:09;24.60;99.90
5218;DHT22;26539;51.064;6.346;2023-06-26T06:11:35;24.80;99.90
5218;DHT22;26539;51.064;6.346;2023-06-26T06:14:00;25.10;99.90
5218;DHT22;26539;51.064;6.346;2023-06-26T06:16:26;25.70;99.90
5218;DHT22;26539;51.064;6.346;2023-06-26T06:18:54;26.80;99.90
5218;DHT22;26539;51.064;6.346;2023-06-26T06:21:20;29.10;99.90
5218;DHT22;26539;51.064;6.346;2023-06-26T06:23:45;31.60;99.90
5218;DHT22;26539;51.064;6.346;2023-06-26T06:26:11;33.80;99.90
5218;DHT22;26539;51.064;6.346;2023-06-26T06:28:36;35.70;94.00
5218;DHT22;26539;51.064;6.346;2023-06-26T06:31:02;37.40;87.50
5218;DHT22;26539;51.064;6.346;2023-06-26T06:33:28;38.70;71.10
5218;DHT22;26539;51.064;6.346;2023-06-26T06:35:53;39.90;58.80
5218;DHT22;26539;51.064;6.346;2023-06-26T06:38:19;40.80;50.40
5218;DHT22;26539;51.064;6.346;2023-06-26T06:40:44;41.60;40.70
5218;DHT22;26539;51.064;6.346;2023-06-26T06:43:10;42.40;32.90
5218;DHT22;26539;51.064;6.346;2023-06-26T06:45:35;43.10;27.20
5218;DHT22;26539;51.064;6.346;2023-06-26T06:48:03;43.60;22.10
5218;DHT22;26539;51.064;6.346;2023-06-26T06:50:28;44.10;18.40
5218;DHT22;26539;51.064;6.346;2023-06-26T06:52:54;44.50;14.70
5218;DHT22;26539;51.064;6.346;2023-06-26T06:55:20;44.80;10.30
5218;DHT22;26539;51.064;6.346;2023-06-26T06:57:45;45.00;6.70
5218;DHT22;26539;51.064;6.346;2023-06-26T07:00:12;45.00;3.40
5218;DHT22;26539;51.064;6.346;2023-06-26T07:02:39;45.90;1.80
5218;DHT22;26539;51.064;6.346;2023-06-26T07:05:05;46.70;1.00
5218;DHT22;26539;51.064;6.346;2023-06-26T07:07:32;47.30;1.00
5218;DHT22;26539;51.064;6.346;2023-06-26T07:10:05;47.90;1.00
5218;DHT22;26539;51.064;6.346;2023-06-26T07:12:31;48.80;1.00
5218;DHT22;26539;51.064;6.346;2023-06-26T07:14:57;49.20;1.00
5218;DHT22;26539;51.064;6.346;2023-06-26T07:17:24;49.80;1.00
5218;DHT22;26539;51.064;6.346;2023-06-26T07:19:50;50.30;1.00
5218;DHT22;26539;51.064;6.346;2023-06-26T07:22:16;50.90;1.00
5218;DHT22;26539;51.064;6.346;2023-06-26T07:24:41;51.20;1.00
5218;DHT22;26539;51.064;6.346;2023-06-26T07:27:07;51.40;1.00
5218;DHT22;26539;51.064;6.346;2023-06-26T07:29:32;50.70;1.00
5218;DHT22;26539;51.064;6.346;2023-06-26T07:31:58;48.60;1.00
5218;DHT22;26539;51.064;6.346;2023-06-26T07:34:24;45.80;1.00
5218;DHT22;26539;51.064;6.346;2023-06-26T07:36:49;42.60;1.00
5218;DHT22;26539;51.064;6.346;2023-06-26T07:39:15;39.90;1.00
5218;DHT22;26539;51.064;6.346;2023-06-26T07:41:40;40.40;1.00
5218;DHT22;26539;51.064;6.346;2023-06-26T07:44:06;39.50;1.00
5218;DHT22;26539;51.064;6.346;2023-06-26T07:46:31;40.90;1.00
5218;DHT22;26539;51.064;6.346;2023-06-26T07:48:57;42.70;1.00
5218;DHT22;26539;51.064;6.346;2023-06-26T07:51:22;41.10;1.00
5218;DHT22;26539;51.064;6.346;2023-06-26T07:53:49;40.50;1.00
5218;DHT22;26539;51.064;6.346;2023-06-26T07:56:14;40.70;1.00
5218;DHT22;26539;51.064;6.346;2023-06-26T07:58:40;40.10;1.00
5218;DHT22;26539;51.064;6.346;2023-06-26T08:01:05;39.00;1.00
5218;DHT22;26539;51.064;6.346;2023-06-26T08:03:31;37.60;1.00
5218;DHT22;26539;51.064;6.346;2023-06-26T08:05:56;35.90;1.00
5218;DHT22;26539;51.064;6.346;2023-06-26T08:08:22;34.70;1.00
5218;DHT22;26539;51.064;6.346;2023-06-26T08:10:48;34.80;1.00
5218;DHT22;26539;51.064;6.346;2023-06-26T08:13:13;34.60;1.00
5218;DHT22;26539;51.064;6.346;2023-06-26T08:15:39;34.00;1.00
5218;DHT22;26539;51.064;6.346;2023-06-26T08:18:04;33.20;1.00
5218;DHT22;26539;51.064;6.346;2023-06-26T08:20:30;32.60;1.00
5218;DHT22;26539;51.064;6.346;2023-06-26T08:22:55;32.00;1.00
5218;DHT22;26539;51.064;6.346;2023-06-26T08:25:21;32.90;1.00
5218;DHT22;26539;51.064;6.346;2023-06-26T08:27:46;32.90;1.00
5218;DHT22;26539;51.064;6.346;2023-06-26T08:30:12;34.00;1.00
5218;DHT22;26539;51.064;6.346;2023-06-26T08:32:38;33.60;1.00
5218;DHT22;26539;51.064;6.346;2023-06-26T08:35:05;33.20;1.00
5218;DHT22;26539;51.064;6.346;2023-06-26T08:37:31;34.20;1.00
5218;DHT22;26539;51.064;6.346;2023-06-26T08:39:59;34.70;1.00
5218;DHT22;26539;51.064;6.346;2023-06-26T08:42:24;35.30;1.10
5218;DHT22;26539;51.064;6.346;2023-06-26T08:44:50;34.70;1.00
5218;DHT22;26539;51.064;6.346;2023-06-26T08:47:15;34.40;1.00
5218;DHT22;26539;51.064;6.346;2023-06-26T08:49:53;35.10;1.60
5218;DHT22;26539;51.064;6.346;2023-06-26T08:52:30;35.70;1.90
5218;DHT22;26539;51.064;6.346;2023-06-26T08:54:59;36.10;2.80
5218;DHT22;26539;51.064;6.346;2023-06-26T08:57:28;35.40;1.00
5218;DHT22;26539;51.064;6.346;2023-06-26T08:59:55;34.30;1.00
5218;DHT22;26539;51.064;6.346;2023-06-26T09:02:21;35.60;2.40
5218;DHT22;26539;51.064;6.346;2023-06-26T09:04:47;37.90;6.50
5218;DHT22;26539;51.064;6.346;2023-06-26T09:07:14;39.80;6.50
5218;DHT22;26539;51.064;6.346;2023-06-26T09:09:40;41.10;6.20
5218;DHT22;26539;51.064;6.346;2023-06-26T09:12:05;42.30;4.00
5218;DHT22;26539;51.064;6.346;2023-06-26T09:14:31;43.50;2.40
5218;DHT22;26539;51.064;6.346;2023-06-26T09:16:57;44.30;1.00
5218;DHT22;26539;51.064;6.346;2023-06-26T09:19:23;43.60;5.00
5218;DHT22;26539;51.064;6.346;2023-06-26T09:21:50;42.20;1.00
5218;DHT22;26539;51.064;6.346;2023-06-26T09:24:17;42.50;1.00
5218;DHT22;26539;51.064;6.346;2023-06-26T09:26:42;43.50;1.00
5218;DHT22;26539;51.064;6.346;2023-06-26T09:29:09;43.90;1.00
5218;DHT22;26539;51.064;6.346;2023-06-26T09:31:39;43.70;1.00
5218;DHT22;26539;51.064;6.346;2023-06-26T09:34:05;43.50;1.00
5218;DHT22;26539;51.064;6.346;2023-06-26T09:36:32;44.10;1.00
5218;DHT22;26539;51.064;6.346;2023-06-26T09:39:05;44.00;1.00
5218;DHT22;26539;51.064;6.346;2023-06-26T09:41:36;44.30;1.00
5218;DHT22;26539;51.064;6.346;2023-06-26T09:44:06;42.40;1.00
5218;DHT22;26539;51.064;6.346;2023-06-26T09:46:33;43.30;1.00
5218;DHT22;26539;51.064;6.346;2023-06-26T09:49:00;44.10;1.00
5218;DHT22;26539;51.064;6.346;2023-06-26T09:51:26;44.60;1.00
5218;DHT22;26539;51.064;6.346;2023-06-26T09:53:52;44.30;1.00
5218;DHT22;26539;51.064;6.346;2023-06-26T09:56:17;44.70;1.00
5218;DHT22;26539;51.064;6.346;2023-06-26T09:58:43;44.10;1.00
5218;DHT22;26539;51.064;6.346;2023-06-26T10:01:09;42.60;1.00
5218;DHT22;26539;51.064;6.346;2023-06-26T10:03:35;42.90;1.00
5218;DHT22;26539;51.064;6.346;2023-06-26T10:06:02;43.40;1.00
5218;DHT22;26539;51.064;6.346;2023-06-26T10:08:28;43.10;1.00
5218;DHT22;26539;51.064;6.346;2023-06-26T10:10:56;41.30;1.00
5218;DHT22;26539;51.064;6.346;2023-06-26T10:13:25;39.40;1.00
5218;DHT22;26539;51.064;6.346;2023-06-26T10:15:53;39.50;1.00
5218;DHT22;26539;51.064;6.346;2023-06-26T10:18:21;40.70;1.00
5218;DHT22;26539;51.064;6.346;2023-06-26T10:20:51;40.40;1.00
5218;DHT22;26539;51.064;6.346;2023-06-26T10:23:19;39.80;1.00
5218;DHT22;26539;51.064;6.346;2023-06-26T10:25:47;38.70;1.00
5218;DHT22;26539;51.064;6.346;2023-06-26T10:28:15;39.10;1.00
5218;DHT22;26539;51.064;6.346;2023-06-26T10:30:43;40.10;1.00
5218;DHT22;26539;51.064;6.346;2023-06-26T10:33:09;40.90;1.00
5218;DHT22;26539;51.064;6.346;2023-06-26T10:35:44;41.40;1.00
5218;DHT22;26539;51.064;6.346;2023-06-26T10:38:10;41.70;1.00
5218;DHT22;26539;51.064;6.346;2023-06-26T10:40:46;42.00;1.00
5218;DHT22;26539;51.064;6.346;2023-06-26T10:43:13;42.30;1.00
5218;DHT22;26539;51.064;6.346;2023-06-26T10:45:45;41.10;1.00
5218;DHT22;26539;51.064;6.346;2023-06-26T10:48:14;39.30;1.00
5218;DHT22;26539;51.064;6.346;2023-06-26T10:50:39;37.70;1.00
5218;DHT22;26539;51.064;6.346;2023-06-26T10:55:37;38.50;1.00
5218;DHT22;26539;51.064;6.346;2023-06-26T10:58:47;39.30;1.00
5218;DHT22;26539;51.064;6.346;2023-06-26T11:01:21;39.90;1.00
5218;DHT22;26539;51.064;6.346;2023-06-26T11:04:04;38.30;1.00
5218;DHT22;26539;51.064;6.346;2023-06-26T11:06:31;38.10;1.00
5218;DHT22;26539;51.064;6.346;2023-06-26T11:11:55;39.00;1.00
5218;DHT22;26539;51.064;6.346;2023-06-26T11:14:26;39.20;1.00
5218;DHT22;26539;51.064;6.346;2023-06-26T11:16:52;38.50;1.00
5218;DHT22;26539;51.064;6.346;2023-06-26T11:19:20;37.40;1.00
5218;DHT22;26539;51.064;6.346;2023-06-26T11:21:46;37.10;1.00
5218;DHT22;26539;51.064;6.346;2023-06-26T11:24:12;37.80;1.00
5218;DHT22;26539;51.064;6.346;2023-06-26T11:29:04;38.70;1.00
5218;DHT22;26539;51.064;6.346;2023-06-26T11:31:30;37.70;1.00
5218;DHT22;26539;51.064;6.346;2023-06-26T11:33:59;37.50;1.00
5218;DHT22;26539;51.064;6.346;2023-06-26T11:36:26;37.20;1.00
5218;DHT22;26539;51.064;6.346;2023-06-26T11:39:01;36.80;1.00
5218;DHT22;26539;51.064;6.346;2023-06-26T11:41:30;37.30;1.00
5218;DHT22;26539;51.064;6.346;2023-06-26T11:43:59;37.80;1.00
5218;DHT22;26539;51.064;6.346;2023-06-26T11:46:25;37.80;1.00
5218;DHT22;26539;51.064;6.346;2023-06-26T11:48:51;38.10;1.00
5218;DHT22;26539;51.064;6.346;2023-06-26T11:51:17;38.10;1.00
5218;DHT22;26539;51.064;6.346;2023-06-26T11:53:44;37.80;1.00
5218;DHT22;26539;51.064;6.346;2023-06-26T11:56:11;37.10;1.00
5218;DHT22;26539;51.064;6.346;2023-06-26T11:58:57;36.30;1.00
5218;DHT22;26539;51.064;6.346;2023-06-26T12:01:46;36.50;1.00
5218;DHT22;26539;51.064;6.346;2023-06-26T12:04:14;36.30;1.00
5218;DHT22;26539;51.064;6.346;2023-06-26T12:06:47;35.60;1.00
5218;DHT22;26539;51.064;6.346;2023-06-26T12:09:13;35.30;1.00
5218;DHT22;26539;51.064;6.346;2023-06-26T12:11:42;35.70;1.00
5218;DHT22;26539;51.064;6.346;2023-06-26T12:14:08;35.70;1.00
5218;DHT22;26539;51.064;6.346;2023-06-26T12:16:35;35.40;1.00
5218;DHT22;26539;51.064;6.346;2023-06-26T12:19:05;34.80;1.00
5218;DHT22;26539;51.064;6.346;2023-06-26T12:24:03;34.20;1.00
5218;DHT22;26539;51.064;6.346;2023-06-26T12:26:28;34.40;1.00
5218;DHT22;26539;51.064;6.346;2023-06-26T12:29:02;34.40;1.00
5218;DHT22;26539;51.064;6.346;2023-06-26T12:31:28;34.70;1.00
5218;DHT22;26539;51.064;6.346;2023-06-26T12:33:53;35.40;1.00
5218;DHT22;26539;51.064;6.346;2023-06-26T12:36:19;35.90;1.00
5218;DHT22;26539;51.064;6.346;2023-06-26T12:38:46;36.00;1.00
5218;DHT22;26539;51.064;6.346;2023-06-26T12:41:12;36.10;1.00
5218;DHT22;26539;51.064;6.346;2023-06-26T12:43:39;36.00;1.00
5218;DHT22;26539;51.064;6.346;2023-06-26T12:46:05;36.00;1.00
5218;DHT22;26539;51.064;6.346;2023-06-26T12:48:41;35.90;1.00
5218;DHT22;26539;51.064;6.346;2023-06-26T12:51:15;35.70;1.00
5218;DHT22;26539;51.064;6.346;2023-06-26T12:53:41;35.10;1.00
5218;DHT22;26539;51.064;6.346;2023-06-26T12:56:08;34.60;1.00
5218;DHT22;26539;51.064;6.346;2023-06-26T12:58:34;34.40;1.00
5218;DHT22;26539;51.064;6.346;2023-06-26T13:01:01;34.40;1.00
5218;DHT22;26539;51.064;6.346;2023-06-26T13:03:26;34.20;1.00
5218;DHT22;26539;51.064;6.346;2023-06-26T13:05:52;34.00;1.00
5218;DHT22;26539;51.064;6.346;2023-06-26T13:08:17;33.90;1.00
5218;DHT22;26539;51.064;6.346;2023-06-26T13:10:43;33.50;1.00
5218;DHT22;26539;51.064;6.346;2023-06-26T13:13:10;33.40;1.00
5218;DHT22;26539;51.064;6.346;2023-06-26T13:15:36;33.40;1.00
5218;DHT22;26539;51.064;6.346;2023-06-26T13:18:01;33.60;1.00
5218;DHT22;26539;51.064;6.346;2023-06-26T13:20:27;33.70;1.00
5218;DHT22;26539;51.064;6.346;2023-06-26T13:22:53;33.30;1.00
5218;DHT22;26539;51.064;6.346;2023-06-26T13:25:19;32.70;1.00
5218;DHT22;26539;51.064;6.346;2023-06-26T13:27:45;32.30;1.00
5218;DHT22;26539;51.064;6.346;2023-06-26T13:30:11;31.90;1.00
5218;DHT22;26539;51.064;6.346;2023-06-26T13:32:37;31.70;1.00
5218;DHT22;26539;51.064;6.346;2023-06-26T13:35:02;31.80;1.00
5218;DHT22;26539;51.064;6.346;2023-06-26T13:37:29;31.80;1.00
5218;DHT22;26539;51.064;6.346;2023-06-26T13:39:54;31.40;1.00
5218;DHT22;26539;51.064;6.346;2023-06-26T13:42:20;31.40;1.00
5218;DHT22;26539;51.064;6.346;2023-06-26T13:44:46;31.40;1.00
5218;DHT22;26539;51.064;6.346;2023-06-26T13:47:13;31.40;1.00
5218;DHT22;26539;51.064;6.346;2023-06-26T13:49:39;31.50;1.00
5218;DHT22;26539;51.064;6.346;2023-06-26T13:52:06;31.50;1.00
5218;DHT22;26539;51.064;6.346;2023-06-26T13:54:35;31.30;1.00
5218;DHT22;26539;51.064;6.346;2023-06-26T13:57:01;31.10;1.00
5218;DHT22;26539;51.064;6.346;2023-06-26T13:59:28;30.80;1.00
5218;DHT22;26539;51.064;6.346;2023-06-26T14:01:53;30.60;1.00
5218;DHT22;26539;51.064;6.346;2023-06-26T14:04:19;30.60;1.00
5218;DHT22;26539;51.064;6.346;2023-06-26T14:06:44;30.60;1.00
5218;DHT22;26539;51.064;6.346;2023-06-26T14:09:11;30.50;1.00
5218;DHT22;26539;51.064;6.346;2023-06-26T14:11:36;30.20;1.00
5218;DHT22;26539;51.064;6.346;2023-06-26T14:14:02;30.10;1.00
5218;DHT22;26539;51.064;6.346;2023-06-26T14:16:28;30.10;1.00
5218;DHT22;26539;51.064;6.346;2023-06-26T14:18:54;29.90;1.00
5218;DHT22;26539;51.064;6.346;2023-06-26T14:21:20;29.80;1.00
5218;DHT22;26539;51.064;6.346;2023-06-26T14:23:45;29.80;1.00
5218;DHT22;26539;51.064;6.346;2023-06-26T14:26:11;29.70;1.00
5218;DHT22;26539;51.064;6.346;2023-06-26T14:28:38;29.70;1.00
5218;DHT22;26539;51.064;6.346;2023-06-26T14:31:04;29.80;1.00
5218;DHT22;26539;51.064;6.346;2023-06-26T14:33:29;29.70;1.00
5218;DHT22;26539;51.064;6.346;2023-06-26T14:35:55;29.70;1.00
5218;DHT22;26539;51.064;6.346;2023-06-26T14:38:20;29.60;1.00
5218;DHT22;26539;51.064;6.346;2023-06-26T14:40:46;29.60;1.00
5218;DHT22;26539;51.064;6.346;2023-06-26T14:43:12;29.60;1.00
5218;DHT22;26539;51.064;6.346;2023-06-26T14:45:37;29.70;1.00
5218;DHT22;26539;51.064;6.346;2023-06-26T14:48:03;29.80;1.00
5218;DHT22;26539;51.064;6.346;2023-06-26T14:50:28;29.70;1.00
5218;DHT22;26539;51.064;6.346;2023-06-26T14:52:54;29.60;1.00
5218;DHT22;26539;51.064;6.346;2023-06-26T14:55:19;29.50;1.00
5218;DHT22;26539;51.064;6.346;2023-06-26T14:57:45;29.50;1.00
5218;DHT22;26539;51.064;6.346;2023-06-26T15:00:11;29.40;1.00
5218;DHT22;26539;51.064;6.346;2023-06-26T15:02:37;29.40;1.00
5218;DHT22;26539;51.064;6.346;2023-06-26T15:05:02;29.20;1.00
5218;DHT22;26539;51.064;6.346;2023-06-26T15:07:28;29.20;1.00
5218;DHT22;26539;51.064;6.346;2023-06-26T15:09:53;29.10;1.00
5218;DHT22;26539;51.064;6.346;2023-06-26T15:12:19;29.10;1.00
5218;DHT22;26539;51.064;6.346;2023-06-26T15:14:45;28.90;1.00
5218;DHT22;26539;51.064;6.346;2023-06-26T15:17:11;28.90;1.00
5218;DHT22;26539;51.064;6.346;2023-06-26T15:19:37;28.90;1.00
5218;DHT22;26539;51.064;6.346;2023-06-26T15:22:03;28.90;1.00
5218;DHT22;26539;51.064;6.346;2023-06-26T15:24:29;29.00;1.00
5218;DHT22;26539;51.064;6.346;2023-06-26T15:26:55;29.00;1.00
5218;DHT22;26539;51.064;6.346;2023-06-26T15:29:20;29.00;1.00
5218;DHT22;26539;51.064;6.346;2023-06-26T15:31:46;29.00;1.00
5218;DHT22;26539;51.064;6.346;2023-06-26T15:34:12;28.90;1.00
5218;DHT22;26539;51.064;6.346;2023-06-26T15:36:38;28.70;1.00
5218;DHT22;26539;51.064;6.346;2023-06-26T15:39:04;28.70;1.00
5218;DHT22;26539;51.064;6.346;2023-06-26T15:41:29;28.70;1.00
5218;DHT22;26539;51.064;6.346;2023-06-26T15:43:55;28.60;1.00
5218;DHT22;26539;51.064;6.346;2023-06-26T15:46:21;28.60;1.00
5218;DHT22;26539;51.064;6.346;2023-06-26T15:48:46;28.60;1.00
5218;DHT22;26539;51.064;6.346;2023-06-26T15:51:13;28.70;1.00
5218;DHT22;26539;51.064;6.346;2023-06-26T15:53:40;28.60;1.00
5218;DHT22;26539;51.064;6.346;2023-06-26T15:56:08;28.70;1.00
5218;DHT22;26539;51.064;6.346;2023-06-26T15:58:34;28.90;1.00
5218;DHT22;26539;51.064;6.346;2023-06-26T16:01:01;28.90;1.00
5218;DHT22;26539;51.064;6.346;2023-06-26T16:03:26;28.90;1.00